Tequesta, Florida
Current Conditions -  °F | °C
As of 2:47 PM on Friday 19 Dec 2014 (Local Time) from KSUA Reporting Station
Scattered Clouds Scattered Clouds  
Wind Chill: 72°   Ceiling: Unl
Heat Index: 72°   Visibility: 7mi
Dew Point: 57°   Wind: 7mph
Humidity: 60%   Direction: 50°NE
Pressure: 30.05"   Gusts: NA
Location:  26.9832°N, 80.1°W
Report Text: KSUA 191947Z 05006KT 7SM SCT030 22/14 A3005
Loading
Personal Weather Stations






























Interactive Weather Map New forecast layout! Learn more

10-Day Weather Forecast

Advertisements
Track Severe Weather on mobile